Time;durP1;ratioP1;P1;durP2;ratioP2;P2;SDS_P1;SDS_P2;PMS_P1;PMS_P2;Temp;Humidity;BMP_temperature;BMP_pressure;BME280_temperature;BME280_humidity;BME280_pressure;Samples;Min_cycle;Max_cycle;Signal;HPM_P1;HPM_P2
2021/04/08 00:02:18;;;;;;;7.67;5.37;;;;;;;2.36;96.58;96877.88;5116673;27;20169;-57
2021/04/08 00:04:43;;;;;;;6.20;5.60;;;;;;;2.59;95.38;96884.03;5131546;27;20265;-57
2021/04/08 00:07:09;;;;;;;6.43;5.83;;;;;;;2.40;96.74;96890.34;5136989;27;20411;-59
2021/04/08 00:09:34;;;;;;;11.07;6.70;;;;;;;2.37;96.99;96895.88;5136779;27;20549;-58
2021/04/08 00:12:00;;;;;;;8.87;5.93;;;;;;;2.26;98.27;96905.72;5137043;27;20195;-60
2021/04/08 00:14:25;;;;;;;10.40;6.60;;;;;;;2.19;98.94;96907.34;5136902;27;20176;-60
2021/04/08 00:16:51;;;;;;;6.80;6.10;;;;;;;2.26;98.50;96893.59;5136611;27;20171;-59
2021/04/08 00:19:18;;;;;;;9.57;6.47;;;;;;;1.81;100.00;96886.22;5121003;27;20530;-60
2021/04/08 00:21:43;;;;;;;7.80;6.67;;;;;;;1.71;100.00;96889.91;5116252;28;20408;-60
2021/04/08 00:24:08;;;;;;;10.37;6.33;;;;;;;1.79;100.00;96882.19;5116529;28;20410;-60
2021/04/08 00:26:34;;;;;;;9.23;7.00;;;;;;;2.15;100.00;96887.91;5116028;28;20184;-57
2021/04/08 00:28:59;;;;;;;7.17;6.57;;;;;;;1.97;100.00;96878.50;5115226;28;20207;-58
2021/04/08 00:31:25;;;;;;;9.63;6.77;;;;;;;1.91;100.00;96884.31;5123045;27;20197;-57
2021/04/08 00:33:50;;;;;;;7.90;6.20;;;;;;;2.06;99.75;96887.09;5135239;27;20239;-57
2021/04/08 00:36:15;;;;;;;10.83;6.13;;;;;;;1.87;99.85;96892.53;5134406;27;20195;-60
2021/04/08 00:38:41;;;;;;;6.80;5.63;;;;;;;1.64;100.00;96883.75;5136095;27;20237;-58
2021/04/08 00:41:06;;;;;;;8.47;6.10;;;;;;;1.80;100.00;96882.00;5136325;27;20175;-58
2021/04/08 00:43:32;;;;;;;5.83;5.23;;;;;;;1.92;100.00;96880.72;5136311;27;20160;-58
2021/04/08 00:45:57;;;;;;;6.53;5.90;;;;;;;1.70;99.78;96888.31;5129886;27;20170;-60
2021/04/08 00:48:23;;;;;;;6.63;5.97;;;;;;;1.97;98.90;96881.09;5115053;28;20213;-58
2021/04/08 00:50:48;;;;;;;7.40;6.70;;;;;;;1.95;97.51;96877.03;5115904;27;20654;-61
2021/04/08 00:53:22;;;;;;;6.13;5.63;;;;;;;2.02;96.67;96878.00;5115580;28;20231;-61
2021/04/08 00:55:51;;;;;;;6.60;5.87;;;;;;;2.03;96.02;96885.63;5115773;28;20165;-60
2021/04/08 00:58:17;;;;;;;10.17;6.87;;;;;;;2.05;95.42;96898.41;5115022;28;20423;-57
2021/04/08 01:00:43;;;;;;;7.10;5.30;;;;;;;1.76;96.92;96903.19;5115475;28;20490;-57
2021/04/08 01:03:11;;;;;;;7.13;6.43;;;;;;;2.06;96.89;96895.69;5115470;28;20457;-60
2021/04/08 01:05:37;;;;;;;10.37;7.23;;;;;;;2.15;95.63;96891.31;5117751;27;20422;-60
2021/04/08 01:08:03;;;;;;;10.60;6.47;;;;;;;1.80;98.28;96894.97;5116115;27;20421;-58
2021/04/08 01:10:29;;;;;;;8.03;6.70;;;;;;;1.72;99.40;96899.31;5133461;27;20463;-60
2021/04/08 01:12:57;;;;;;;7.53;6.60;;;;;;;1.76;99.34;96895.41;5135661;27;20448;-60
2021/04/08 01:15:24;;;;;;;9.20;6.40;;;;;;;1.90;98.37;96903.41;5135621;27;20211;-60
2021/04/08 01:18:04;;;;;;;8.40;7.10;;;;;;;1.81;98.22;96906.16;5135330;27;20402;-60
2021/04/08 01:20:43;;;;;;;9.53;7.20;;;;;;;1.91;98.19;96902.44;5135552;27;20419;-58
2021/04/08 01:23:23;;;;;;;9.57;7.63;;;;;;;2.03;97.82;96901.16;5134866;27;20455;-61
2021/04/08 01:26:15;;;;;;;10.30;6.67;;;;;;;2.09;96.50;96905.72;5115105;28;20506;-58
2021/04/08 01:28:45;;;;;;;7.70;6.90;;;;;;;2.25;96.15;96899.72;5114208;28;20443;-58
2021/04/08 01:31:14;;;;;;;9.70;7.40;;;;;;;2.17;95.86;96906.69;5113680;28;20496;-58
2021/04/08 01:33:47;;;;;;;8.27;6.60;;;;;;;2.05;95.78;96909.59;5114695;28;20837;-60
2021/04/08 01:36:22;;;;;;;8.00;7.07;;;;;;;2.27;94.53;96907.34;5114997;27;20464;-60
2021/04/08 01:38:52;;;;;;;8.40;6.53;;;;;;;2.04;94.43;96902.78;5114114;28;20451;-58
2021/04/08 01:41:22;;;;;;;8.60;7.37;;;;;;;1.91;95.40;96905.03;5125800;27;20922;-60
2021/04/08 01:43:50;;;;;;;7.07;6.30;;;;;;;1.90;93.73;96912.97;5135325;27;20870;-60
2021/04/08 01:46:19;;;;;;;6.93;5.13;;;;;;;1.99;90.53;96910.22;5134586;27;20409;-58
2021/04/08 01:48:49;;;;;;;6.00;4.97;;;;;;;2.13;90.16;96908.78;5113956;28;20435;-60
2021/04/08 01:51:15;;;;;;;8.90;5.20;;;;;;;2.08;90.73;96914.44;5114588;28;20919;-57
2021/04/08 01:53:47;;;;;;;10.53;5.00;;;;;;;2.04;89.10;96920.13;5115992;27;20455;-60
2021/04/08 01:56:15;;;;;;;7.60;5.23;;;;;;;2.27;88.93;96933.25;5134865;27;20405;-60
2021/04/08 01:58:42;;;;;;;5.67;4.60;;;;;;;2.52;87.22;96929.75;5134382;27;20437;-57
2021/04/08 02:01:08;;;;;;;7.07;4.20;;;;;;;2.40;87.35;96934.41;5134019;27;20410;-60
2021/04/08 02:03:35;;;;;;;5.40;4.80;;;;;;;2.56;86.87;96939.63;5134500;27;20418;-60
2021/04/08 02:06:01;;;;;;;5.50;4.60;;;;;;;2.42;86.91;96939.44;5134678;27;20875;-57
2021/04/08 02:08:27;;;;;;;9.47;4.97;;;;;;;2.32;87.22;96946.56;5131180;27;20963;-60
2021/04/08 02:10:55;;;;;;;4.80;4.17;;;;;;;2.56;86.42;96944.81;5134659;27;20393;-57
2021/04/08 02:13:23;;;;;;;6.83;4.60;;;;;;;2.58;86.94;96948.03;5134717;27;20489;-60
2021/04/08 02:15:49;;;;;;;5.27;4.77;;;;;;;2.72;85.04;96949.16;5133711;27;20431;-60
2021/04/08 02:18:16;;;;;;;4.30;3.67;;;;;;;2.49;87.19;96945.59;5116987;27;21150;-57
2021/04/08 02:20:45;;;;;;;4.03;3.63;;;;;;;2.55;87.57;96948.38;5130470;27;20420;-58
2021/04/08 02:23:16;;;;;;;4.30;3.63;;;;;;;2.59;86.92;96957.44;5134109;27;20451;-58
2021/04/08 02:25:42;;;;;;;5.43;4.10;;;;;;;2.63;87.27;96945.78;5134520;27;20406;-60
2021/04/08 02:28:09;;;;;;;4.93;3.83;;;;;;;2.42;86.57;96949.81;5133980;27;20508;-58
2021/04/08 02:30:46;;;;;;;3.97;3.67;;;;;;;2.44;86.81;96956.47;5134596;27;20395;-60
2021/04/08 02:33:18;;;;;;;5.70;4.00;;;;;;;2.34;86.31;96948.00;5131562;27;20457;-59
2021/04/08 02:35:43;;;;;;;4.93;4.00;;;;;;;2.39;86.40;96942.38;5134534;27;20479;-60
2021/04/08 02:38:09;;;;;;;6.23;3.40;;;;;;;2.59;85.24;96946.28;5133938;27;20444;-58
2021/04/08 02:40:34;;;;;;;5.00;4.40;;;;;;;2.47;85.56;96944.94;5134313;27;20266;-60
2021/04/08 02:43:00;;;;;;;3.73;2.60;;;;;;;2.23;84.90;96942.34;5134573;27;20169;-60
2021/04/08 02:45:25;;;;;;;3.80;3.30;;;;;;;2.09;86.39;96948.94;5133153;28;20172;-57
2021/04/08 02:47:50;;;;;;;3.20;2.73;;;;;;;2.24;85.83;96955.13;5132913;27;20184;-59
2021/04/08 02:50:16;;;;;;;4.10;3.73;;;;;;;2.26;85.85;96957.56;5134111;27;20734;-58
2021/04/08 02:53:18;;;;;;;3.80;3.13;;;;;;;2.33;84.57;96958.56;5137884;27;20195;-58
2021/04/08 02:55:51;;;;;;;3.50;3.20;;;;;;;2.62;84.99;96964.91;5138592;27;20172;-58
2021/04/08 02:58:19;;;;;;;6.30;3.43;;;;;;;2.50;84.42;96965.41;5138061;27;20434;-58
2021/04/08 03:01:00;;;;;;;4.73;3.40;;;;;;;2.48;84.47;96967.34;5137151;27;20806;-60
2021/04/08 03:03:32;;;;;;;5.07;3.03;;;;;;;2.80;84.41;96969.94;5138290;27;20501;-58
2021/04/08 03:06:03;;;;;;;4.30;3.33;;;;;;;2.62;83.84;96972.69;5138526;27;20454;-60
2021/04/08 03:08:31;;;;;;;4.33;3.43;;;;;;;2.93;83.93;96970.25;5137711;27;20423;-59
2021/04/08 03:11:04;;;;;;;3.47;2.47;;;;;;;2.54;82.46;96970.09;5137749;27;20466;-58
2021/04/08 03:13:36;;;;;;;4.60;3.30;;;;;;;2.60;83.03;96984.19;5138143;27;20471;-58
2021/04/08 03:16:05;;;;;;;4.13;3.70;;;;;;;2.54;84.39;96974.44;5135678;27;20432;-60
2021/04/08 03:18:32;;;;;;;5.47;3.90;;;;;;;2.82;82.62;96980.97;5137277;27;20422;-58
2021/04/08 03:20:58;;;;;;;4.03;3.20;;;;;;;2.46;83.90;96987.41;5137757;27;20410;-58
2021/04/08 03:23:25;;;;;;;6.30;3.60;;;;;;;2.51;84.69;96982.56;5137551;27;20431;-61
2021/04/08 03:25:52;;;;;;;3.73;3.33;;;;;;;2.31;84.72;96983.81;5137845;27;20401;-60
2021/04/08 03:28:18;;;;;;;4.53;3.20;;;;;;;2.59;84.35;96980.00;5137070;27;20420;-59
2021/04/08 03:30:46;;;;;;;6.47;3.30;;;;;;;2.91;83.32;96988.59;5123314;27;20424;-60
2021/04/08 03:33:13;;;;;;;5.27;3.97;;;;;;;2.74;83.38;96980.94;5137826;27;20806;-60
2021/04/08 03:35:45;;;;;;;3.90;3.60;;;;;;;3.14;82.96;96986.94;5134098;27;20513;-58
2021/04/08 03:38:11;;;;;;;3.50;3.07;;;;;;;3.08;82.37;96986.78;5137292;27;20394;-60
2021/04/08 03:40:36;;;;;;;4.07;3.37;;;;;;;2.97;82.88;96987.91;5130869;27;20426;-58
2021/04/08 03:43:02;;;;;;;3.03;2.77;;;;;;;3.22;83.59;96982.72;5117020;28;20759;-60
2021/04/08 03:45:27;;;;;;;3.27;3.07;;;;;;;3.54;82.26;96993.84;5118884;27;20633;-60
2021/04/08 03:47:59;;;;;;;3.47;3.17;;;;;;;3.60;81.11;97001.00;5136519;27;20180;-59
2021/04/08 03:50:26;;;;;;;5.30;3.07;;;;;;;3.20;82.30;96995.88;5135255;27;20220;-58
2021/04/08 03:52:51;;;;;;;3.87;2.70;;;;;;;3.30;82.31;96995.69;5137124;27;20454;-58
2021/04/08 03:55:17;;;;;;;3.80;2.87;;;;;;;3.34;81.93;96992.59;5137301;27;20563;-58
2021/04/08 03:57:44;;;;;;;4.77;3.10;;;;;;;3.41;82.06;96998.75;5137051;27;20168;-60
2021/04/08 04:00:11;;;;;;;8.40;3.40;;;;;;;3.35;82.39;97004.63;5135804;27;20426;-61
2021/04/08 04:02:39;;;;;;;7.80;3.17;;;;;;;3.21;82.93;96991.50;5114792;28;20410;-58
2021/04/08 04:05:08;;;;;;;8.23;3.00;;;;;;;3.26;82.94;97009.97;5136370;27;20437;-60
2021/04/08 04:07:35;;;;;;;3.20;2.90;;;;;;;3.35;83.18;97006.41;5136636;27;20459;-57
2021/04/08 04:10:01;;;;;;;3.77;3.40;;;;;;;3.24;83.08;97015.34;5136851;27;20521;-60
2021/04/08 04:12:27;;;;;;;4.50;3.20;;;;;;;2.98;83.46;97017.28;5136884;27;20952;-58
2021/04/08 04:14:55;;;;;;;3.17;2.87;;;;;;;2.98;83.62;97017.28;5136145;27;20447;-58
2021/04/08 04:17:28;;;;;;;5.77;3.70;;;;;;;3.17;83.15;97017.75;5134638;27;20175;-60
2021/04/08 04:19:54;;;;;;;7.93;3.37;;;;;;;3.22;82.08;97017.28;5136520;27;20430;-58
2021/04/08 04:22:20;;;;;;;3.50;3.20;;;;;;;3.31;82.21;97012.88;5136670;27;20417;-61
2021/04/08 04:24:45;;;;;;;4.33;3.07;;;;;;;3.49;81.00;97019.53;5136332;27;20885;-58
2021/04/08 04:27:11;;;;;;;3.83;3.10;;;;;;;3.24;81.45;97022.31;5136259;27;20414;-60
2021/04/08 04:29:36;;;;;;;5.53;3.47;;;;;;;3.35;81.35;97017.59;5135832;27;20188;-62
2021/04/08 04:32:02;;;;;;;3.00;2.80;;;;;;;3.46;80.90;97024.22;5134598;27;20674;-58
2021/04/08 04:34:28;;;;;;;3.93;3.53;;;;;;;3.48;80.87;97023.06;5136539;27;20165;-60
2021/04/08 04:36:53;;;;;;;4.10;3.37;;;;;;;3.47;80.41;97029.25;5136260;27;20945;-61
2021/04/08 04:39:18;;;;;;;3.37;3.10;;;;;;;3.81;79.77;97029.00;5135025;27;20242;-60
2021/04/08 04:41:44;;;;;;;3.80;2.93;;;;;;;3.78;79.88;97035.38;5136446;27;20618;-58
2021/04/08 04:44:09;;;;;;;3.53;2.63;;;;;;;3.63;80.13;97031.81;5134667;27;20166;-57
2021/04/08 04:46:35;;;;;;;7.30;4.03;;;;;;;3.05;80.37;97037.25;5135407;27;20236;-60
2021/04/08 04:49:01;;;;;;;5.67;4.00;;;;;;;3.06;79.93;97031.06;5135850;27;20279;-58
2021/04/08 04:51:26;;;;;;;5.63;3.97;;;;;;;3.00;78.57;97041.28;5136193;27;20406;-58
2021/04/08 04:53:51;;;;;;;6.00;4.07;;;;;;;2.99;79.51;97039.66;5124744;27;20223;-58
2021/04/08 04:56:17;;;;;;;7.27;4.37;;;;;;;2.90;78.78;97051.00;5115570;28;20625;-60
2021/04/08 04:58:42;;;;;;;4.10;3.40;;;;;;;3.05;79.53;97052.81;5119205;27;20336;-57
2021/04/08 05:01:08;;;;;;;6.57;3.40;;;;;;;2.91;78.76;97060.44;5135894;27;20177;-58
2021/04/08 05:03:33;;;;;;;8.50;4.00;;;;;;;2.89;79.08;97059.78;5136100;27;20244;-58
2021/04/08 05:05:59;;;;;;;4.03;3.73;;;;;;;2.84;78.89;97059.44;5123062;27;20583;-60
2021/04/08 05:08:24;;;;;;;6.27;4.50;;;;;;;2.75;78.47;97058.63;5114567;28;20219;-60
2021/04/08 05:10:49;;;;;;;3.80;3.43;;;;;;;2.88;78.12;97060.75;5131250;27;20212;-58
2021/04/08 05:13:15;;;;;;;3.90;3.50;;;;;;;2.86;78.15;97060.88;5133867;27;20207;-60
2021/04/08 05:15:40;;;;;;;4.13;3.73;;;;;;;2.84;78.85;97062.88;5134758;27;20200;-58
2021/04/08 05:18:06;;;;;;;4.13;3.73;;;;;;;3.11;77.42;97062.56;5134794;27;20655;-60
2021/04/08 05:20:31;;;;;;;4.13;3.73;;;;;;;2.69;79.05;97061.84;5135584;27;20167;-57
2021/04/08 05:22:56;;;;;;;5.50;3.77;;;;;;;2.64;79.97;97066.72;5134639;27;20225;-61
2021/04/08 05:25:22;;;;;;;4.37;3.10;;;;;;;3.05;79.26;97067.56;5135576;27;20172;-60
2021/04/08 05:27:47;;;;;;;3.27;2.80;;;;;;;3.01;77.58;97069.69;5119521;27;20549;-60
2021/04/08 05:30:13;;;;;;;3.73;3.43;;;;;;;2.75;79.68;97071.59;5114815;27;20684;-60
2021/04/08 05:32:38;;;;;;;5.73;3.63;;;;;;;2.54;79.38;97081.59;5114813;27;20553;-60
2021/04/08 05:35:05;;;;;;;5.33;4.10;;;;;;;2.83;78.68;97074.19;5131742;27;20815;-60
2021/04/08 05:37:31;;;;;;;6.23;2.90;;;;;;;2.91;78.15;97084.59;5134893;27;20172;-60
2021/04/08 05:39:56;;;;;;;3.50;3.07;;;;;;;2.93;77.95;97087.03;5133201;27;20583;-60
2021/04/08 05:42:21;;;;;;;3.13;2.83;;;;;;;2.88;77.65;97081.50;5133570;27;20195;-61
2021/04/08 05:44:47;;;;;;;2.90;2.67;;;;;;;2.99;76.96;97086.38;5133856;27;20183;-61
2021/04/08 05:47:12;;;;;;;8.33;2.73;;;;;;;2.77;77.63;97084.41;5134406;27;20546;-60
2021/04/08 05:49:37;;;;;;;3.53;3.10;;;;;;;3.03;77.21;97091.09;5135238;27;20255;-60
2021/04/08 05:52:06;;;;;;;5.37;3.10;;;;;;;3.20;77.51;97094.50;5135061;27;20660;-60
2021/04/08 05:54:31;;;;;;;5.20;3.30;;;;;;;3.40;77.12;97093.22;5127966;27;20210;-60
2021/04/08 05:56:57;;;;;;;6.30;3.47;;;;;;;3.40;76.28;97098.41;5114100;28;20442;-61
2021/04/08 05:59:23;;;;;;;3.23;3.00;;;;;;;3.47;75.92;97091.59;5114250;28;20243;-58
2021/04/08 06:01:49;;;;;;;4.80;3.40;;;;;;;3.35;75.65;97105.88;5114198;28;20574;-58
2021/04/08 06:04:14;;;;;;;3.23;2.67;;;;;;;3.64;74.80;97108.75;5114597;28;20458;-58
2021/04/08 06:06:39;;;;;;;6.70;3.80;;;;;;;3.54;75.25;97104.72;5114316;28;20174;-58
2021/04/08 06:09:05;;;;;;;5.13;3.27;;;;;;;2.99;76.77;97113.13;5114936;28;20620;-57
2021/04/08 06:11:30;;;;;;;3.67;3.37;;;;;;;3.20;76.96;97107.50;5114236;28;20176;-60
2021/04/08 06:13:56;;;;;;;5.43;3.33;;;;;;;3.14;77.06;97108.94;5125510;27;20728;-58
2021/04/08 06:16:21;;;;;;;4.50;4.07;;;;;;;3.36;76.02;97104.91;5122859;27;20645;-60
2021/04/08 06:18:46;;;;;;;4.53;4.17;;;;;;;3.51;74.90;97108.47;5113879;28;20186;-61
2021/04/08 06:21:12;;;;;;;4.63;3.73;;;;;;;3.30;75.42;97108.13;5114023;28;20255;-60
2021/04/08 06:23:37;;;;;;;4.90;4.40;;;;;;;3.71;75.04;97119.34;5131798;27;20220;-57
2021/04/08 06:26:03;;;;;;;7.03;4.27;;;;;;;3.26;75.54;97125.03;5134287;27;20173;-60
2021/04/08 06:28:28;;;;;;;6.07;4.30;;;;;;;3.63;73.81;97119.31;5120978;27;20232;-61
2021/04/08 06:30:53;;;;;;;6.53;3.80;;;;;;;3.79;74.13;97114.09;5113909;28;21033;-59
2021/04/08 06:33:19;;;;;;;3.83;3.43;;;;;;;3.36;73.76;97128.28;5113688;28;20260;-58
2021/04/08 06:35:44;;;;;;;3.90;3.60;;;;;;;3.39;74.37;97121.94;5114738;28;20185;-60
2021/04/08 06:38:09;;;;;;;4.60;3.67;;;;;;;3.45;75.38;97123.88;5113361;28;20698;-58
2021/04/08 06:40:35;;;;;;;5.03;3.93;;;;;;;3.55;74.65;97125.34;5113759;28;20174;-60
2021/04/08 06:43:01;;;;;;;4.63;4.20;;;;;;;3.52;74.88;97120.47;5113628;28;20646;-59
2021/04/08 06:45:30;;;;;;;4.53;4.13;;;;;;;3.54;74.40;97125.50;5113697;28;20219;-58
2021/04/08 06:48:08;;;;;;;6.27;4.00;;;;;;;3.87;73.54;97122.72;5113316;28;20527;-60
2021/04/08 06:50:37;;;;;;;5.23;4.53;;;;;;;4.09;72.63;97131.63;5124050;28;20423;-60
2021/04/08 06:53:04;;;;;;;7.47;5.50;;;;;;;4.12;71.70;97126.06;5132890;27;20457;-61
2021/04/08 06:55:30;;;;;;;7.93;4.90;;;;;;;3.97;71.50;97127.72;5134214;27;20395;-60
2021/04/08 06:57:57;;;;;;;6.07;4.80;;;;;;;3.75;72.08;97131.81;5133953;27;20818;-58
2021/04/08 07:00:22;;;;;;;5.57;5.07;;;;;;;3.91;71.67;97126.59;5134022;27;20507;-58
2021/04/08 07:02:48;;;;;;;8.73;5.07;;;;;;;4.07;71.34;97125.78;5132463;27;20422;-57
2021/04/08 07:05:14;;;;;;;9.63;5.67;;;;;;;3.88;70.99;97131.31;5134137;28;20502;-58
2021/04/08 07:07:39;;;;;;;6.80;5.50;;;;;;;3.82;70.58;97127.59;5132552;27;20178;-60
2021/04/08 07:10:06;;;;;;;8.07;6.87;;;;;;;3.35;70.45;97138.81;5133646;28;20287;-58
2021/04/08 07:12:32;;;;;;;6.70;5.80;;;;;;;3.64;70.50;97132.16;5133478;27;20565;-58
2021/04/08 07:14:57;;;;;;;9.30;6.80;;;;;;;3.65;69.61;97141.59;5134136;27;20396;-58
2021/04/08 07:17:23;;;;;;;8.40;6.90;;;;;;;3.73;70.82;97140.78;5131128;28;20672;-58
2021/04/08 07:19:49;;;;;;;8.40;6.70;;;;;;;3.85;70.32;97144.66;5113573;28;20219;-60
2021/04/08 07:22:16;;;;;;;8.17;5.63;;;;;;;3.76;70.77;97151.66;5119616;28;20546;-57
2021/04/08 07:24:44;;;;;;;5.27;4.60;;;;;;;3.26;71.41;97152.78;5132613;27;20172;-58
2021/04/08 07:27:16;;;;;;;4.73;4.33;;;;;;;3.29;72.83;97148.06;5133410;27;20958;-58
2021/04/08 07:29:41;;;;;;;5.43;4.27;;;;;;;3.65;72.01;97153.75;5122280;27;20527;-60
2021/04/08 07:32:07;;;;;;;10.97;5.27;;;;;;;4.09;72.03;97150.59;5152962;27;20512;-57
2021/04/08 07:34:37;;;;;;;4.40;4.00;;;;;;;3.88;71.34;97155.53;5144216;27;20186;-60
2021/04/08 07:37:04;;;;;;;4.60;4.10;;;;;;;3.84;69.47;97156.03;5130549;27;20431;-59
2021/04/08 07:39:44;;;;;;;6.70;4.10;;;;;;;4.15;68.33;97156.94;5135927;27;20438;-58
2021/04/08 07:42:13;;;;;;;8.60;5.13;;;;;;;4.04;68.49;97152.09;5137764;27;20866;-61
2021/04/08 07:44:42;;;;;;;8.90;5.57;;;;;;;4.15;68.58;97155.16;5136249;27;20411;-60
2021/04/08 07:47:35;;;;;;;7.60;4.40;;;;;;;4.35;67.91;97162.59;5116408;28;20859;-61
2021/04/08 07:50:03;;;;;;;4.47;4.07;;;;;;;4.19;67.75;97166.84;5116256;28;20436;-60
2021/04/08 07:52:31;;;;;;;4.63;4.10;;;;;;;4.08;67.76;97171.56;5122209;27;20462;-67
2021/04/08 07:55:03;;;;;;;6.93;4.97;;;;;;;3.92;67.60;97172.41;5123095;27;20526;-62
2021/04/08 07:57:29;;;;;;;9.43;5.13;;;;;;;4.03;68.74;97171.25;5119084;27;20409;-56
2021/04/08 07:59:55;;;;;;;6.67;4.50;;;;;;;4.38;66.70;97175.25;5116864;28;20471;-62
2021/04/08 08:02:26;;;;;;;11.40;5.00;;;;;;;4.56;66.32;97173.25;5124747;27;20429;-56
2021/04/08 08:05:22;;;;;;;4.90;4.40;;;;;;;4.73;66.18;97175.63;5137026;27;20397;-57
2021/04/08 08:07:48;;;;;;;7.90;5.57;;;;;;;4.59;67.30;97183.31;5123934;27;20422;-56
2021/04/08 08:10:16;;;;;;;5.50;4.27;;;;;;;4.52;63.83;97175.38;5116483;27;20961;-56
2021/04/08 08:12:41;;;;;;;4.93;4.43;;;;;;;4.85;65.57;97181.28;5125132;27;20528;-60
2021/04/08 08:15:30;;;;;;;5.63;4.97;;;;;;;4.80;66.32;97171.34;5139615;27;20499;-57
2021/04/08 08:17:57;;;;;;;6.50;5.30;;;;;;;4.39;66.73;97174.25;5115959;28;20169;-61
2021/04/08 08:20:24;;;;;;;4.97;4.07;;;;;;;4.74;65.13;97171.22;5116401;27;20845;-61
2021/04/08 08:22:50;;;;;;;7.23;4.67;;;;;;;4.51;65.01;97183.34;5116045;28;20470;-56
2021/04/08 08:25:23;;;;;;;6.77;5.03;;;;;;;4.12;65.54;97184.09;5116241;28;20394;-60
2021/04/08 08:27:51;;;;;;;5.70;5.00;;;;;;;3.95;62.77;97182.47;5135835;27;20424;-60
2021/04/08 08:30:21;;;;;;;6.97;5.10;;;;;;;4.09;65.96;97178.41;5136523;27;20415;-57
2021/04/08 08:33:08;;;;;;;5.57;4.77;;;;;;;4.20;67.63;97176.25;5132777;27;20805;-58
2021/04/08 08:35:34;;;;;;;5.30;4.80;;;;;;;4.41;64.55;97177.50;5126079;27;20417;-58
2021/04/08 08:38:10;;;;;;;6.37;5.27;;;;;;;4.51;63.27;97180.75;5113118;27;20426;-60
2021/04/08 08:40:37;;;;;;;7.17;5.23;;;;;;;4.33;62.90;97180.16;5112331;28;20403;-59
2021/04/08 08:43:04;;;;;;;5.47;4.97;;;;;;;4.55;61.92;97176.84;5113256;27;20504;-58
2021/04/08 08:45:31;;;;;;;5.73;5.10;;;;;;;4.67;62.08;97180.69;5131154;27;20430;-58
2021/04/08 08:48:01;;;;;;;6.00;5.40;;;;;;;4.31;61.63;97189.91;5132089;27;20468;-58
2021/04/08 08:50:26;;;;;;;5.93;4.50;;;;;;;4.05;61.86;97190.94;5131036;27;20497;-58
2021/04/08 08:52:53;;;;;;;5.77;5.33;;;;;;;4.26;61.17;97182.59;5132408;27;20936;-59
2021/04/08 08:55:21;;;;;;;5.27;4.87;;;;;;;4.46;61.63;97180.41;5130899;27;20692;-59
2021/04/08 08:57:53;;;;;;;8.40;5.00;;;;;;;4.45;61.73;97181.41;5132355;27;20407;-59
2021/04/08 09:00:20;;;;;;;7.17;5.03;;;;;;;4.72;60.61;97175.78;5132535;27;20951;-61
2021/04/08 09:02:46;;;;;;;5.20;4.67;;;;;;;5.00;58.33;97169.94;5131002;27;20445;-60
2021/04/08 09:05:16;;;;;;;5.40;4.90;;;;;;;5.04;58.06;97175.63;5132075;27;20423;-60
2021/04/08 09:07:43;;;;;;;4.30;3.93;;;;;;;4.94;56.31;97169.84;5131931;27;20167;-58
2021/04/08 09:10:12;;;;;;;4.33;3.93;;;;;;;4.87;57.77;97172.28;5130321;27;21310;-61
2021/04/08 09:12:38;;;;;;;4.83;4.33;;;;;;;5.01;58.87;97175.97;5127847;27;20978;-57
2021/04/08 09:15:06;;;;;;;5.10;4.60;;;;;;;5.32;57.45;97168.97;5131242;27;20471;-60
2021/04/08 09:17:39;;;;;;;7.20;4.20;;;;;;;5.38;58.50;97159.66;5129594;27;20782;-60
2021/04/08 09:20:09;;;;;;;4.63;4.23;;;;;;;5.03;57.21;97174.03;5118144;27;20981;-58
2021/04/08 09:22:49;;;;;;;4.40;4.00;;;;;;;5.19;57.17;97164.34;5111452;28;20409;-60
2021/04/08 09:25:21;;;;;;;4.40;4.00;;;;;;;5.68;58.37;97170.00;5111458;28;20402;-57
2021/04/08 09:27:56;;;;;;;4.43;4.00;;;;;;;5.41;55.19;97174.94;5118771;27;20422;-59
2021/04/08 09:33:43;;;;;;;4.43;4.00;;;;;;;5.24;58.72;97174.22;5131726;27;20525;-59
2021/04/08 09:36:20;;;;;;;4.80;3.90;;;;;;;5.39;58.06;97182.09;5130448;27;20422;-59
2021/04/08 09:38:48;;;;;;;4.03;3.67;;;;;;;5.63;57.84;97179.34;5130594;27;20423;-62
2021/04/08 09:41:14;;;;;;;4.30;3.60;;;;;;;5.79;58.20;97179.22;5131515;27;20404;-59
2021/04/08 09:43:40;;;;;;;4.00;3.53;;;;;;;5.70;55.92;97177.66;5117282;27;20422;-63
2021/04/08 09:46:10;;;;;;;4.93;3.67;;;;;;;5.57;55.54;97178.22;5111255;27;20180;-62
2021/04/08 09:48:53;;;;;;;3.97;3.67;;;;;;;5.57;56.18;97170.41;5110451;28;20196;-61
2021/04/08 09:51:28;;;;;;;5.20;4.80;;;;;;;5.69;56.55;97176.84;5110491;28;20410;-59
2021/04/08 09:53:53;;;;;;;4.73;4.23;;;;;;;5.53;57.46;97176.13;5111367;28;20464;-62
2021/04/08 09:56:18;;;;;;;5.87;3.97;;;;;;;5.76;56.93;97162.09;5110684;28;20490;-58
2021/04/08 09:58:56;;;;;;;4.83;3.90;;;;;;;5.67;55.34;97165.75;5115220;27;20205;-58
2021/04/08 10:01:21;;;;;;;3.80;3.50;;;;;;;5.65;57.13;97169.56;5114006;28;20168;-58
2021/04/08 10:03:47;;;;;;;4.20;3.90;;;;;;;5.37;57.31;97171.03;5114316;28;20733;-57
2021/04/08 10:06:16;;;;;;;6.83;4.30;;;;;;;5.70;56.58;97164.63;5114163;28;20247;-58
2021/04/08 10:08:42;;;;;;;4.97;3.90;;;;;;;5.78;57.86;97167.16;5113748;28;20333;-65
2021/04/08 10:11:08;;;;;;;4.87;3.63;;;;;;;5.74;56.28;97171.09;5114897;27;20418;-59
2021/04/08 10:13:35;;;;;;;4.97;3.97;;;;;;;5.68;57.24;97169.19;5130305;27;20815;-64
2021/04/08 10:16:08;;;;;;;4.80;3.40;;;;;;;5.73;56.51;97165.06;5123479;27;20532;-58
2021/04/08 10:18:34;;;;;;;5.90;3.57;;;;;;;5.40;56.67;97162.91;5152480;27;20948;-58
2021/04/08 10:21:03;;;;;;;4.90;3.80;;;;;;;5.18;58.81;97161.91;5149479;27;20489;-64
2021/04/08 10:23:39;;;;;;;8.23;3.80;;;;;;;5.33;56.79;97156.75;5134528;27;20405;-64
2021/04/08 10:26:07;;;;;;;4.97;3.87;;;;;;;5.23;56.90;97163.00;5134282;27;20791;-57
2021/04/08 10:28:37;;;;;;;4.57;3.73;;;;;;;5.37;55.93;97171.03;5133006;27;20473;-58
2021/04/08 10:31:19;;;;;;;4.43;4.00;;;;;;;5.37;56.26;97165.84;5134401;27;20452;-64
2021/04/08 10:33:50;;;;;;;5.27;3.80;;;;;;;5.77;55.53;97157.72;5134379;27;20452;-64
2021/04/08 10:36:26;;;;;;;4.77;3.70;;;;;;;5.95;56.75;97156.44;5134510;27;20397;-65
2021/04/08 10:39:11;;;;;;;5.20;3.90;;;;;;;5.84;53.94;97159.47;5128151;27;20436;-65
2021/04/08 10:41:39;;;;;;;8.40;4.03;;;;;;;5.31;53.04;97156.91;5131678;27;20413;-57
2021/04/08 10:44:21;;;;;;;6.30;4.10;;;;;;;5.08;56.29;97153.47;5130887;27;20409;-58
2021/04/08 10:46:47;;;;;;;4.83;4.30;;;;;;;5.66;55.32;97163.34;5130587;27;20419;-63
2021/04/08 10:49:46;;;;;;;7.10;4.40;;;;;;;5.77;51.52;97149.88;5147697;27;20452;-57
2021/04/08 10:52:15;;;;;;;4.97;3.80;;;;;;;6.40;53.64;97133.81;5113334;28;20546;-65
2021/04/08 10:54:42;;;;;;;5.13;3.83;;;;;;;6.55;51.23;97137.22;5119022;28;20427;-65
2021/04/08 10:57:08;;;;;;;6.17;4.17;;;;;;;6.87;50.27;97132.41;5122878;28;20497;-64
2021/04/08 10:59:38;;;;;;;4.23;3.80;;;;;;;6.47;49.11;97132.91;5131885;27;20801;-59
2021/04/08 11:02:43;;;;;;;5.50;3.67;;;;;;;6.18;50.88;97143.34;5133172;27;20882;-64
2021/04/08 11:05:23;;;;;;;3.90;3.60;;;;;;;6.13;52.06;97143.88;5139438;27;20434;-64
2021/04/08 11:07:54;;;;;;;4.60;4.07;;;;;;;6.29;50.15;97139.50;5113229;28;20399;-64
2021/04/08 11:10:23;;;;;;;5.93;4.10;;;;;;;6.05;49.40;97143.16;5121175;28;20433;-65
2021/04/08 11:12:53;;;;;;;7.97;3.97;;;;;;;6.69;48.62;97137.22;5119401;27;20829;-65
2021/04/08 11:15:24;;;;;;;5.47;4.33;;;;;;;6.05;49.67;97159.59;5119684;27;20422;-64
2021/04/08 11:17:54;;;;;;;4.40;3.57;;;;;;;6.10;51.06;97146.84;5118967;27;20414;-64
2021/04/08 11:20:38;;;;;;;3.80;3.47;;;;;;;6.60;49.20;97145.31;5126983;27;20964;-58
2021/04/08 11:23:05;;;;;;;5.60;3.37;;;;;;;6.65;49.33;97135.94;5136106;27;20467;-58
2021/04/08 11:25:31;;;;;;;4.87;3.57;;;;;;;6.62;50.18;97128.50;5138344;27;20425;-58
2021/04/08 11:27:59;;;;;;;6.37;3.93;;;;;;;6.75;48.33;97135.69;5130628;27;20492;-60
2021/04/08 11:30:31;;;;;;;4.27;3.23;;;;;;;6.76;49.76;97127.66;5121421;27;20946;-59
2021/04/08 11:32:59;;;;;;;4.00;3.60;;;;;;;6.83;48.33;97136.38;5117662;27;20904;-59
2021/04/08 11:35:31;;;;;;;6.23;3.70;;;;;;;6.89;48.70;97127.81;5132269;27;20463;-57
2021/04/08 11:38:20;;;;;;;5.97;3.93;;;;;;;7.05;48.29;97122.38;5142394;27;20441;-59
2021/04/08 11:40:50;;;;;;;3.67;3.33;;;;;;;6.79;48.54;97126.50;5135790;27;20423;-59
2021/04/08 11:43:30;;;;;;;3.73;3.30;;;;;;;6.94;48.22;97120.22;5129131;27;20423;-58
2021/04/08 11:46:04;;;;;;;6.00;3.00;;;;;;;6.79;47.20;97119.47;5116760;27;20420;-60
2021/04/08 11:48:41;;;;;;;5.10;4.60;;;;;;;7.04;48.66;97126.00;5135650;27;20477;-58
2021/04/08 11:51:07;;;;;;;5.23;3.90;;;;;;;6.76;48.58;97127.66;5135524;27;20481;-60
2021/04/08 11:53:35;;;;;;;5.80;3.27;;;;;;;7.23;48.15;97116.72;5137037;27;20456;-58